createdAt,value
2023-04-20T00:01:57.050Z,6.13
2023-04-20T00:04:24.145Z,5.25
2023-04-20T00:06:52.085Z,5.35
2023-04-20T00:09:19.334Z,4.90
2023-04-20T00:11:46.330Z,5.05
2023-04-20T00:14:13.130Z,5.15
2023-04-20T00:16:40.015Z,5.45
2023-04-20T00:19:08.083Z,4.95
2023-04-20T00:21:35.513Z,4.75
2023-04-20T00:24:02.298Z,4.85
2023-04-20T00:26:29.124Z,4.40
2023-04-20T00:28:55.981Z,4.13
2023-04-20T00:31:22.912Z,4.60
2023-04-20T00:33:49.949Z,4.47
2023-04-20T00:36:16.812Z,5.90
2023-04-20T00:38:43.875Z,5.40
2023-04-20T00:41:10.783Z,5.90
2023-04-20T00:43:38.065Z,7.38
2023-04-20T00:46:04.928Z,6.53
2023-04-20T00:48:32.142Z,6.00
2023-04-20T00:50:59.328Z,6.82
2023-04-20T00:53:26.297Z,6.28
2023-04-20T00:55:53.647Z,5.72
2023-04-20T00:58:21.073Z,5.82
2023-04-20T01:00:48.197Z,5.30
2023-04-20T01:03:15.289Z,6.00
2023-04-20T01:05:42.344Z,5.45
2023-04-20T01:08:09.141Z,5.53
2023-04-20T01:10:36.296Z,6.10
2023-04-20T01:13:03.800Z,4.97
2023-04-20T01:15:31.055Z,5.43
2023-04-20T01:17:58.107Z,5.05
2023-04-20T01:20:24.993Z,5.05
2023-04-20T01:22:54.353Z,5.38
2023-04-20T01:25:21.912Z,5.45
2023-04-20T01:27:48.888Z,5.88
2023-04-20T01:30:17.317Z,5.38
2023-04-20T01:32:45.140Z,4.88
2023-04-20T01:35:12.337Z,4.70
2023-04-20T01:37:40.353Z,5.00
2023-04-20T01:40:10.928Z,5.00
2023-04-20T01:42:38.397Z,4.85
2023-04-20T01:45:06.987Z,5.00
2023-04-20T01:47:34.990Z,4.57
2023-04-20T01:50:01.924Z,4.25
2023-04-20T01:52:28.799Z,4.53
2023-04-20T01:54:55.680Z,4.80
2023-04-20T01:57:22.508Z,4.82
2023-04-20T01:59:49.285Z,4.63
2023-04-20T02:02:16.285Z,4.78
2023-04-20T02:04:43.290Z,3.92
2023-04-20T02:07:10.126Z,4.60
2023-04-20T02:09:36.979Z,4.55
2023-04-20T02:12:04.379Z,4.30
2023-04-20T02:14:31.276Z,4.90
2023-04-20T02:16:59.334Z,5.00
2023-04-20T02:19:26.322Z,4.85
2023-04-20T02:21:53.489Z,4.57
2023-04-20T02:24:20.558Z,5.03
2023-04-20T02:26:47.625Z,4.20
2023-04-20T02:29:14.406Z,4.70
2023-04-20T02:31:41.810Z,4.97
2023-04-20T02:34:09.691Z,4.47
2023-04-20T02:36:36.954Z,4.47
2023-04-20T02:39:04.129Z,4.47
2023-04-20T02:41:30.906Z,4.03
2023-04-20T02:43:57.670Z,4.13
2023-04-20T02:46:24.520Z,4.50
2023-04-20T02:48:51.757Z,4.85
2023-04-20T02:51:18.651Z,4.32
2023-04-20T02:53:45.470Z,4.38
2023-04-20T02:56:12.266Z,4.70
2023-04-20T02:58:39.021Z,4.88
2023-04-20T03:01:06.149Z,5.32
2023-04-20T03:03:33.617Z,4.55
2023-04-20T03:06:00.941Z,4.63
2023-04-20T03:08:27.695Z,4.82
2023-04-20T03:10:54.592Z,4.32
2023-04-20T03:13:21.568Z,4.30
2023-04-20T03:15:48.739Z,4.97
2023-04-20T03:18:15.537Z,4.50
2023-04-20T03:20:42.329Z,4.78
2023-04-20T03:23:10.227Z,4.78
2023-04-20T03:25:37.289Z,5.55
2023-04-20T03:28:04.161Z,5.78
2023-04-20T03:30:31.246Z,5.10
2023-04-20T03:32:58.148Z,5.85
2023-04-20T03:35:25.426Z,5.22
2023-04-20T03:37:52.525Z,5.88
2023-04-20T03:40:19.748Z,6.20
2023-04-20T03:42:46.902Z,5.70
2023-04-20T03:45:13.785Z,5.53
2023-04-20T03:47:40.661Z,5.10
2023-04-20T03:50:08.244Z,5.63
2023-04-20T03:52:35.188Z,4.85
2023-04-20T03:55:02.877Z,6.03
2023-04-20T03:57:29.713Z,5.72
2023-04-20T03:59:56.511Z,5.90
2023-04-20T04:02:23.820Z,5.95
2023-04-20T04:04:50.846Z,5.47
2023-04-20T04:07:17.756Z,5.70
2023-04-20T04:09:44.579Z,5.60
2023-04-20T04:12:11.427Z,5.78
2023-04-20T04:14:38.414Z,5.97
2023-04-20T04:17:05.715Z,6.03
2023-04-20T04:19:32.606Z,6.75
2023-04-20T04:21:59.586Z,5.72
2023-04-20T04:24:26.939Z,5.95
2023-04-20T04:26:56.611Z,6.97
2023-04-20T04:29:26.128Z,6.20
2023-04-20T04:31:54.324Z,6.53
2023-04-20T04:34:21.136Z,6.40
2023-04-20T04:36:48.119Z,6.78
2023-04-20T04:39:15.120Z,6.82
2023-04-20T04:41:42.405Z,6.57
2023-04-20T04:44:09.827Z,5.95
2023-04-20T04:46:36.876Z,6.53
2023-04-20T04:49:04.326Z,6.90
2023-04-20T04:51:31.927Z,6.35
2023-04-20T04:53:58.683Z,6.25
2023-04-20T04:56:26.047Z,7.93
2023-04-20T04:58:53.311Z,6.72
2023-04-20T05:01:21.121Z,7.05
2023-04-20T05:03:48.300Z,6.50
2023-04-20T05:06:15.424Z,7.15
2023-04-20T05:08:46.585Z,7.45
2023-04-20T05:11:13.502Z,6.93
2023-04-20T05:13:40.384Z,7.65
2023-04-20T05:16:08.334Z,7.47
2023-04-20T05:18:35.512Z,7.95
2023-04-20T05:21:02.673Z,7.20
2023-04-20T05:23:29.806Z,6.68
2023-04-20T05:25:57.039Z,7.22
2023-04-20T05:28:23.962Z,8.07
2023-04-20T05:30:51.142Z,7.05
2023-04-20T05:33:17.935Z,6.78
2023-04-20T05:35:45.175Z,7.40
2023-04-20T05:38:12.351Z,7.05
2023-04-20T05:40:39.287Z,7.55
2023-04-20T05:43:06.699Z,7.70
2023-04-20T05:45:34.753Z,8.10
2023-04-20T05:48:02.083Z,8.18
2023-04-20T05:50:28.948Z,8.52
2023-04-20T05:52:55.798Z,7.60
2023-04-20T05:55:23.410Z,7.32
2023-04-20T05:57:52.405Z,7.75
2023-04-20T06:00:20.347Z,7.53
2023-04-20T06:02:47.621Z,7.47
2023-04-20T06:05:15.009Z,7.70
2023-04-20T06:07:42.133Z,8.27
2023-04-20T06:10:09.505Z,7.32
2023-04-20T06:12:36.369Z,7.40
2023-04-20T06:15:05.201Z,7.90
2023-04-20T06:17:34.512Z,7.70
2023-04-20T06:20:01.336Z,8.52
2023-04-20T06:22:28.242Z,9.20
2023-04-20T06:24:55.125Z,8.32
2023-04-20T06:27:21.959Z,8.45
2023-04-20T06:29:49.260Z,8.80
2023-04-20T06:32:16.242Z,8.45
2023-04-20T06:34:43.769Z,8.20
2023-04-20T06:37:11.001Z,8.68
2023-04-20T06:39:38.115Z,8.18
2023-04-20T06:42:05.207Z,8.48
2023-04-20T06:44:32.018Z,9.50
2023-04-20T06:46:58.868Z,8.75
2023-04-20T06:49:25.904Z,10.18
2023-04-20T06:51:52.703Z,9.48
2023-04-20T06:54:19.531Z,8.88
2023-04-20T06:56:46.304Z,9.20
2023-04-20T06:59:16.323Z,7.90
2023-04-20T07:01:43.377Z,8.52
2023-04-20T07:04:10.252Z,8.35
2023-04-20T07:06:37.161Z,8.52
2023-04-20T07:09:05.113Z,7.13
2023-04-20T07:11:31.971Z,8.68
2023-04-20T07:13:59.110Z,8.23
2023-04-20T07:16:26.038Z,8.13
2023-04-20T07:18:53.006Z,8.85
2023-04-20T07:21:20.074Z,7.93
2023-04-20T07:23:50.512Z,8.13
2023-04-20T07:26:18.111Z,7.57
2023-04-20T07:29:12.031Z,7.68
2023-04-20T07:31:39.044Z,8.00
2023-04-20T07:34:09.430Z,8.23
2023-04-20T07:36:39.338Z,8.63
2023-04-20T07:39:06.491Z,7.22
2023-04-20T07:41:33.236Z,7.72
2023-04-20T07:44:00.763Z,7.63
2023-04-20T07:46:28.715Z,8.10
2023-04-20T07:48:55.729Z,7.38
2023-04-20T07:51:22.904Z,6.35
2023-04-20T07:53:49.689Z,6.95
2023-04-20T07:56:16.784Z,6.75
2023-04-20T07:58:43.610Z,6.38
2023-04-20T08:01:11.678Z,7.70
2023-04-20T08:03:38.725Z,6.28
2023-04-20T08:06:06.216Z,7.05
2023-04-20T08:08:33.409Z,7.63
2023-04-20T08:11:13.495Z,6.43
2023-04-20T08:13:41.852Z,6.68
2023-04-20T08:16:08.922Z,6.93
2023-04-20T08:18:35.756Z,6.57
2023-04-20T08:21:02.880Z,6.60
2023-04-20T08:23:30.124Z,5.63
2023-04-20T08:25:57.475Z,6.68
2023-04-20T08:28:33.420Z,6.18
2023-04-20T08:31:42.295Z,7.28
2023-04-20T08:34:10.161Z,6.97
2023-04-20T08:36:37.146Z,6.65
2023-04-20T08:39:19.705Z,5.53
2023-04-20T08:41:48.032Z,5.35
2023-04-20T08:44:15.228Z,5.20
2023-04-20T08:46:47.227Z,5.40
2023-04-20T08:49:17.271Z,5.70
2023-04-20T08:51:45.678Z,5.38
2023-04-20T08:54:13.245Z,6.13
2023-04-20T08:56:45.472Z,4.70
2023-04-20T08:59:14.746Z,4.60
2023-04-20T09:01:43.008Z,4.80
2023-04-20T09:04:16.725Z,4.70
2023-04-20T09:06:50.439Z,4.82
2023-04-20T09:09:19.039Z,4.95
2023-04-20T09:11:46.436Z,4.60
2023-04-20T09:14:18.351Z,4.97
2023-04-20T09:17:05.342Z,5.15
2023-04-20T09:19:32.471Z,3.90
2023-04-20T09:22:03.978Z,3.42
2023-04-20T09:24:39.275Z,3.78
2023-04-20T09:27:49.221Z,3.45
2023-04-20T09:30:16.188Z,3.28
2023-04-20T09:33:44.442Z,3.28
2023-04-20T09:36:12.144Z,3.95
2023-04-20T09:38:39.134Z,2.70
2023-04-20T09:41:07.109Z,3.30
2023-04-20T09:43:36.588Z,3.10
2023-04-20T09:46:04.550Z,3.20
2023-04-20T09:48:32.244Z,2.85
2023-04-20T09:51:08.667Z,3.38
2023-04-20T09:53:36.892Z,3.70
2023-04-20T09:56:06.984Z,3.72
2023-04-20T09:58:35.363Z,3.40
2023-04-20T10:01:02.906Z,3.20
2023-04-20T10:03:30.288Z,3.00
2023-04-20T10:06:00.182Z,3.58
2023-04-20T10:09:34.222Z,3.45
2023-04-20T10:12:10.166Z,3.35
2023-04-20T10:14:37.021Z,3.17
2023-04-20T10:17:06.478Z,3.33
2023-04-20T10:19:44.636Z,2.80
2023-04-20T10:22:13.741Z,2.72
2023-04-20T10:24:40.687Z,2.58
2023-04-20T10:27:17.975Z,2.42
2023-04-20T10:29:45.691Z,2.50
2023-04-20T10:32:50.420Z,2.28
2023-04-20T10:35:17.493Z,1.90
2023-04-20T10:37:49.506Z,2.10
2023-04-20T10:40:17.047Z,2.30
2023-04-20T10:42:45.032Z,1.63
2023-04-20T10:45:12.948Z,1.75
2023-04-20T10:47:42.636Z,1.80
2023-04-20T10:50:15.180Z,1.95
2023-04-20T10:52:43.765Z,1.98
2023-04-20T10:55:27.549Z,2.67
2023-04-20T10:57:54.390Z,2.53
2023-04-20T11:00:26.417Z,2.80
2023-04-20T11:02:55.297Z,2.63
2023-04-20T11:05:24.623Z,2.50
2023-04-20T11:07:53.893Z,2.67
2023-04-20T11:12:50.126Z,2.53
2023-04-20T11:15:17.060Z,2.85
2023-04-20T11:17:44.193Z,3.05
2023-04-20T11:20:13.676Z,2.92
2023-04-20T11:22:42.143Z,3.90
2023-04-20T11:25:12.649Z,3.90
2023-04-20T11:27:42.153Z,3.28
2023-04-20T11:30:10.135Z,3.22
2023-04-20T11:32:38.674Z,3.25
2023-04-20T11:35:08.861Z,3.75
2023-04-20T11:37:57.669Z,3.90
2023-04-20T11:40:26.638Z,4.65
2023-04-20T11:42:55.435Z,4.85
2023-04-20T11:45:23.576Z,4.88
2023-04-20T11:47:51.516Z,4.75
2023-04-20T11:50:18.939Z,4.70
2023-04-20T11:52:45.792Z,4.70
2023-04-20T11:55:12.676Z,4.97
2023-04-20T11:57:39.535Z,4.30
2023-04-20T12:00:07.671Z,4.55
2023-04-20T12:02:34.911Z,4.22
2023-04-20T12:05:02.534Z,3.83
2023-04-20T12:07:29.515Z,3.60
2023-04-20T12:09:56.355Z,4.10
2023-04-20T12:12:23.923Z,4.70
2023-04-20T12:14:50.846Z,3.63
2023-04-20T12:17:17.716Z,3.30
2023-04-20T12:19:44.505Z,3.75
2023-04-20T12:22:11.363Z,3.50
2023-04-20T12:24:38.125Z,3.53
2023-04-20T12:27:06.336Z,3.80
2023-04-20T12:29:33.342Z,3.60
2023-04-20T12:32:00.478Z,3.83
2023-04-20T12:34:27.443Z,4.00
2023-04-20T12:36:54.534Z,4.82
2023-04-20T12:39:22.166Z,4.88
2023-04-20T12:41:48.952Z,5.15
2023-04-20T12:44:16.370Z,4.93
2023-04-20T12:46:43.311Z,5.50
2023-04-20T12:49:13.281Z,4.32
2023-04-20T12:51:41.003Z,4.78
2023-04-20T12:54:08.356Z,4.35
2023-04-20T12:56:35.313Z,4.60
2023-04-20T12:59:03.586Z,4.68
2023-04-20T13:01:30.685Z,5.18
2023-04-20T13:03:58.088Z,5.95
2023-04-20T13:06:25.456Z,4.78
2023-04-20T13:08:52.338Z,5.38
2023-04-20T13:11:19.497Z,5.00
2023-04-20T13:13:46.472Z,4.82
2023-04-20T13:16:14.370Z,4.88
2023-04-20T13:18:41.518Z,4.35
2023-04-20T13:21:08.491Z,4.40
2023-04-20T13:23:35.696Z,4.55
2023-04-20T13:26:02.643Z,4.30
2023-04-20T13:28:29.523Z,4.10
2023-04-20T13:30:57.639Z,4.78
2023-04-20T13:33:25.114Z,4.38
2023-04-20T13:35:52.062Z,3.75
2023-04-20T13:38:18.989Z,4.20
2023-04-20T13:40:47.401Z,4.60
2023-04-20T13:43:14.309Z,4.50
2023-04-20T13:45:41.345Z,4.78
2023-04-20T13:48:08.308Z,4.45
2023-04-20T13:50:35.575Z,4.78
2023-04-20T13:53:03.294Z,3.88
2023-04-20T13:55:31.854Z,5.07
2023-04-20T13:57:59.296Z,4.68
2023-04-20T14:00:26.451Z,3.83
2023-04-20T14:02:53.663Z,3.78
2023-04-20T14:05:20.869Z,4.22
2023-04-20T14:07:47.933Z,4.20
2023-04-20T14:10:15.323Z,4.13
2023-04-20T14:12:42.275Z,4.07
2023-04-20T14:15:09.897Z,3.83
2023-04-20T14:17:36.919Z,6.68
2023-04-20T14:20:04.284Z,4.53
2023-04-20T14:22:36.034Z,4.50
2023-04-20T14:25:05.296Z,4.32
2023-04-20T14:27:33.002Z,4.25
2023-04-20T14:30:00.226Z,4.85
2023-04-20T14:32:27.389Z,4.40
2023-04-20T14:34:54.189Z,4.45
2023-04-20T14:37:21.323Z,4.40
2023-04-20T14:39:48.158Z,4.68
2023-04-20T14:42:15.279Z,4.70
2023-04-20T14:44:42.610Z,4.20
2023-04-20T14:47:09.903Z,4.10
2023-04-20T14:49:37.027Z,4.60
2023-04-20T14:52:03.895Z,4.05
2023-04-20T14:54:30.958Z,3.83
2023-04-20T14:56:58.602Z,4.03
2023-04-20T14:59:27.256Z,3.90
2023-04-20T15:02:02.343Z,4.00
2023-04-20T15:04:30.787Z,3.95
2023-04-20T15:06:58.144Z,3.50
2023-04-20T15:09:25.160Z,3.47
2023-04-20T15:11:52.006Z,3.53
2023-04-20T15:14:19.361Z,3.70
2023-04-20T15:16:46.411Z,3.60
2023-04-20T15:19:13.253Z,4.00
2023-04-20T15:21:41.042Z,4.07
2023-04-20T15:24:09.399Z,4.70
2023-04-20T15:26:36.395Z,3.95
2023-04-20T15:29:03.467Z,4.15
2023-04-20T15:31:31.087Z,4.28
2023-04-20T15:34:00.252Z,3.60
2023-04-20T15:36:27.666Z,4.07
2023-04-20T15:38:57.406Z,3.92
2023-04-20T15:41:24.906Z,4.30
2023-04-20T15:43:51.915Z,3.88
2023-04-20T15:46:19.052Z,3.92
2023-04-20T15:48:46.229Z,3.80
2023-04-20T15:51:13.468Z,3.92
2023-04-20T15:53:40.242Z,4.30
2023-04-20T15:56:07.507Z,4.50
2023-04-20T15:58:34.387Z,4.22
2023-04-20T16:01:01.556Z,4.00
2023-04-20T16:03:28.810Z,4.07
2023-04-20T16:05:55.708Z,3.70
2023-04-20T16:08:22.480Z,4.22
2023-04-20T16:10:49.212Z,3.95
2023-04-20T16:13:16.501Z,4.57
2023-04-20T16:15:43.450Z,4.05
2023-04-20T16:18:10.592Z,3.97
2023-04-20T16:20:39.368Z,4.18
2023-04-20T16:23:07.658Z,4.00
2023-04-20T16:25:34.906Z,4.30
2023-04-20T16:28:01.969Z,4.28
2023-04-20T16:30:29.444Z,3.47
2023-04-20T16:32:56.397Z,3.97
2023-04-20T16:35:23.448Z,3.70
2023-04-20T16:37:50.420Z,3.75
2023-04-20T16:40:19.081Z,3.63
2023-04-20T16:42:46.247Z,3.22
2023-04-20T16:45:14.819Z,3.25
2023-04-20T16:47:41.662Z,3.42
2023-04-20T16:50:09.388Z,4.47
2023-04-20T16:52:36.677Z,4.20
2023-04-20T16:55:04.561Z,4.28
2023-04-20T16:57:32.071Z,4.68
2023-04-20T16:59:58.924Z,5.10
2023-04-20T17:02:31.548Z,5.50
2023-04-20T17:04:58.778Z,6.03
2023-04-20T17:07:26.851Z,5.70
2023-04-20T17:09:53.829Z,6.20
2023-04-20T17:12:20.926Z,5.55
